createdAt,value
2023-04-14T00:01:48.813Z,98882.44
2023-04-14T00:04:16.602Z,98890.72
2023-04-14T00:06:43.693Z,98877.41
2023-04-14T00:09:10.855Z,98883.91
2023-04-14T00:11:37.698Z,98884.94
2023-04-14T00:14:04.744Z,98880.69
2023-04-14T00:16:32.838Z,98880.81
2023-04-14T00:18:59.970Z,98886.13
2023-04-14T00:21:27.378Z,98889.97
2023-04-14T00:23:54.381Z,98890.16
2023-04-14T00:26:21.453Z,98891.09
2023-04-14T00:28:48.189Z,98894.38
2023-04-14T00:31:15.298Z,98896.47
2023-04-14T00:33:42.098Z,98899.50
2023-04-14T00:36:08.986Z,98896.13
2023-04-14T00:38:38.520Z,98905.84
2023-04-14T00:41:05.409Z,98906.19
2023-04-14T00:43:32.148Z,98904.25
2023-04-14T00:45:59.052Z,98904.66
2023-04-14T00:48:26.139Z,98904.66
2023-04-14T00:50:52.907Z,98905.84
2023-04-14T00:53:20.329Z,98915.53
2023-04-14T00:55:47.441Z,98909.91
2023-04-14T00:58:16.045Z,98914.63
2023-04-14T01:00:43.240Z,98916.28
2023-04-14T01:03:10.224Z,98915.94
2023-04-14T01:05:37.054Z,98920.50
2023-04-14T01:08:04.478Z,98919.97
2023-04-14T01:10:39.235Z,98931.81
2023-04-14T01:13:21.455Z,98930.34
2023-04-14T01:15:57.760Z,98927.41
2023-04-14T01:18:40.934Z,98928.94
2023-04-14T01:21:14.395Z,98929.78
2023-04-14T01:24:02.858Z,98936.50
2023-04-14T01:26:31.598Z,98941.31
2023-04-14T01:29:19.883Z,98944.16
2023-04-14T01:31:54.107Z,98938.50
2023-04-14T01:34:33.950Z,98935.84
2023-04-14T01:37:15.238Z,98944.28
2023-04-14T01:39:47.014Z,98943.97
2023-04-14T01:42:18.181Z,98945.06
2023-04-14T01:44:46.800Z,98948.09
2023-04-14T01:47:17.653Z,98954.22
2023-04-14T01:49:45.890Z,98954.06
2023-04-14T01:52:15.345Z,98951.75
2023-04-14T01:54:43.679Z,98953.03
2023-04-14T01:57:13.047Z,98949.47
2023-04-14T01:59:42.078Z,98962.25
2023-04-14T02:02:13.120Z,98947.72
2023-04-14T02:04:41.757Z,98958.81
2023-04-14T02:07:11.818Z,98954.84
2023-04-14T02:09:41.535Z,98966.31
2023-04-14T02:12:11.142Z,98959.50
2023-04-14T02:14:41.036Z,98945.81
2023-04-14T02:17:11.243Z,98947.63
2023-04-14T02:19:39.146Z,98953.59
2023-04-14T02:22:06.247Z,98956.53
2023-04-14T02:24:33.122Z,98952.59
2023-04-14T02:27:07.391Z,98950.06
2023-04-14T02:29:36.640Z,98950.53
2023-04-14T02:32:05.890Z,98951.50
2023-04-14T02:34:38.966Z,98945.47
2023-04-14T02:37:15.666Z,98946.38
2023-04-14T02:39:45.837Z,98954.38
2023-04-14T02:42:16.562Z,98959.00
2023-04-14T02:44:50.242Z,98951.88
2023-04-14T02:47:26.018Z,98950.88
2023-04-14T02:49:56.654Z,98948.19
2023-04-14T02:52:25.009Z,98951.53
2023-04-14T02:54:53.197Z,98945.28
2023-04-14T02:57:20.907Z,98945.22
2023-04-14T02:59:48.332Z,98949.75
2023-04-14T03:02:17.261Z,98940.09
2023-04-14T03:04:45.027Z,98941.94
2023-04-14T03:07:13.962Z,98933.13
2023-04-14T03:09:42.544Z,98938.59
2023-04-14T03:12:13.072Z,98933.81
2023-04-14T03:14:41.329Z,98932.34
2023-04-14T03:17:09.204Z,98930.97
2023-04-14T03:19:38.229Z,98931.34
2023-04-14T03:22:05.825Z,98935.44
2023-04-14T03:24:35.029Z,98940.25
2023-04-14T03:27:07.381Z,98943.56
2023-04-14T03:29:43.828Z,98941.13
2023-04-14T03:32:12.203Z,98947.28
2023-04-14T03:34:42.218Z,98944.38
2023-04-14T03:37:10.302Z,98946.88
2023-04-14T03:39:39.877Z,98950.53
2023-04-14T03:42:13.828Z,98949.38
2023-04-14T03:44:46.405Z,98958.91
2023-04-14T03:47:14.868Z,98956.91
2023-04-14T03:49:46.507Z,98958.91
2023-04-14T03:52:15.891Z,98962.22
2023-04-14T03:54:45.503Z,98952.41
2023-04-14T03:57:17.819Z,98956.41
2023-04-14T03:59:47.434Z,98953.25
2023-04-14T04:02:15.408Z,98952.03
2023-04-14T04:04:43.609Z,98948.88
2023-04-14T04:07:13.808Z,98946.41
2023-04-14T04:09:43.062Z,98940.09
2023-04-14T04:12:11.865Z,98938.22
2023-04-14T04:14:42.548Z,98936.25
2023-04-14T04:17:09.821Z,98934.00
2023-04-14T04:19:39.066Z,98932.38
2023-04-14T04:22:07.968Z,98928.53
2023-04-14T04:24:40.572Z,98927.78
2023-04-14T04:27:17.108Z,98928.13
2023-04-14T04:29:51.777Z,98922.16
2023-04-14T04:32:18.870Z,98929.84
2023-04-14T04:34:47.423Z,98931.16
2023-04-14T04:37:14.488Z,98932.28
2023-04-14T04:39:41.351Z,98941.81
2023-04-14T04:42:08.580Z,98932.03
2023-04-14T04:44:38.623Z,98940.50
2023-04-14T04:47:06.028Z,98939.34
2023-04-14T04:49:32.848Z,98945.03
2023-04-14T04:52:00.088Z,98936.22
2023-04-14T04:54:27.422Z,98938.38
2023-04-14T04:56:54.373Z,98937.88
2023-04-14T04:59:21.140Z,98941.50
2023-04-14T05:01:48.274Z,98944.97
2023-04-14T05:04:15.828Z,98950.16
2023-04-14T05:06:42.605Z,98955.13
2023-04-14T05:09:09.724Z,98951.94
2023-04-14T05:11:36.719Z,98954.06
2023-04-14T05:14:03.641Z,98947.56
2023-04-14T05:16:30.871Z,98953.38
2023-04-14T05:18:57.785Z,98953.72
2023-04-14T05:21:24.954Z,98950.78
2023-04-14T05:23:51.853Z,98949.81
2023-04-14T05:28:48.410Z,98959.75
2023-04-14T05:31:15.218Z,98956.50
2023-04-14T05:33:42.049Z,98948.81
2023-04-14T05:36:08.932Z,98956.63
2023-04-14T05:38:41.965Z,98952.63
2023-04-14T05:41:09.232Z,98959.44
2023-04-14T05:43:36.141Z,98954.63
2023-04-14T05:46:03.078Z,98964.09
2023-04-14T05:48:31.122Z,98968.72
2023-04-14T05:50:58.309Z,98973.56
2023-04-14T05:53:25.300Z,98981.66
2023-04-14T05:55:53.098Z,98986.63
2023-04-14T05:58:20.321Z,98990.44
2023-04-14T06:00:47.213Z,98992.88
2023-04-14T06:03:15.535Z,98995.19
2023-04-14T06:05:42.477Z,98991.50
2023-04-14T06:08:09.245Z,99000.75
2023-04-14T06:10:36.090Z,99003.69
2023-04-14T06:13:02.924Z,99002.09
2023-04-14T06:15:29.983Z,99002.47
2023-04-14T06:17:56.940Z,99004.06
2023-04-14T06:20:23.854Z,99000.63
2023-04-14T06:22:50.739Z,98999.59
2023-04-14T06:25:17.593Z,99001.25
2023-04-14T06:27:44.513Z,98989.16
2023-04-14T06:30:12.025Z,98998.75
2023-04-14T06:32:38.810Z,98997.31
2023-04-14T06:35:05.962Z,98989.44
2023-04-14T06:37:32.765Z,98988.47
2023-04-14T06:39:59.565Z,98986.88
2023-04-14T06:42:26.500Z,98977.63
2023-04-14T06:44:53.217Z,98974.19
2023-04-14T06:47:21.925Z,98977.19
2023-04-14T06:49:48.840Z,98976.91
2023-04-14T06:52:15.679Z,98968.63
2023-04-14T06:54:42.605Z,98974.31
2023-04-14T06:57:09.598Z,98965.31
2023-04-14T06:59:37.685Z,98973.66
2023-04-14T07:02:04.764Z,98959.00
2023-04-14T07:04:31.832Z,98954.69
2023-04-14T07:07:01.919Z,98950.31
2023-04-14T07:09:31.582Z,98938.31
2023-04-14T07:11:58.427Z,98940.00
2023-04-14T07:14:25.171Z,98939.19
2023-04-14T07:16:53.137Z,98936.16
2023-04-14T07:19:20.831Z,98930.53
2023-04-14T07:21:48.213Z,98935.00
2023-04-14T07:24:15.652Z,98929.22
2023-04-14T07:26:44.559Z,98941.13
2023-04-14T07:29:14.280Z,98935.75
2023-04-14T07:31:41.264Z,98933.72
2023-04-14T07:34:08.168Z,98941.31
2023-04-14T07:36:35.072Z,98945.09
2023-04-14T07:39:01.928Z,98929.34
2023-04-14T07:41:28.742Z,98938.41
2023-04-14T07:43:59.677Z,98939.22
2023-04-14T07:46:26.707Z,98942.16
2023-04-14T07:48:53.732Z,98947.97
2023-04-14T07:51:21.115Z,98941.78
2023-04-14T07:53:47.976Z,98944.25
2023-04-14T07:56:15.776Z,98949.63
2023-04-14T07:58:42.545Z,98946.28
2023-04-14T08:01:09.347Z,98937.59
2023-04-14T08:03:39.320Z,98940.63
2023-04-14T08:06:08.197Z,98937.94
2023-04-14T08:08:35.986Z,98940.47
2023-04-14T08:11:02.766Z,98934.44
2023-04-14T08:13:29.746Z,98934.94
2023-04-14T08:15:56.614Z,98935.78
2023-04-14T08:18:23.474Z,98928.38
2023-04-14T08:20:52.227Z,98931.56
2023-04-14T08:23:22.794Z,98930.81
2023-04-14T08:25:49.552Z,98925.00
2023-04-14T08:28:16.326Z,98924.91
2023-04-14T08:30:43.121Z,98914.03
2023-04-14T08:33:09.944Z,98911.81
2023-04-14T08:35:41.992Z,98916.00
2023-04-14T08:38:10.135Z,98929.72
2023-04-14T08:40:41.790Z,98917.53
2023-04-14T08:43:10.216Z,98916.94
2023-04-14T08:45:38.090Z,98908.66
2023-04-14T08:48:06.137Z,98911.94
2023-04-14T08:50:37.668Z,98917.19
2023-04-14T08:53:08.888Z,98912.31
2023-04-14T08:55:39.405Z,98914.13
2023-04-14T08:58:09.814Z,98906.28
2023-04-14T09:00:36.731Z,98905.47
2023-04-14T09:03:04.837Z,98907.88
2023-04-14T09:05:32.565Z,98903.38
2023-04-14T09:07:59.598Z,98895.84
2023-04-14T09:10:27.564Z,98891.66
2023-04-14T09:12:54.738Z,98891.69
2023-04-14T09:15:21.940Z,98882.13
2023-04-14T09:17:48.821Z,98880.09
2023-04-14T09:20:37.874Z,98880.09
2023-04-14T09:23:04.594Z,98872.31
2023-04-14T09:25:32.172Z,98876.66
2023-04-14T09:27:58.928Z,98884.53
2023-04-14T09:30:25.988Z,98886.28
2023-04-14T09:32:56.829Z,98887.66
2023-04-14T09:35:42.450Z,98884.16
2023-04-14T09:38:09.210Z,98886.94
2023-04-14T09:40:35.992Z,98890.28
2023-04-14T09:43:02.762Z,98887.06
2023-04-14T09:45:45.296Z,98881.75
2023-04-14T09:48:15.749Z,98877.88
2023-04-14T09:51:10.121Z,98869.31
2023-04-14T09:53:39.389Z,98872.53
2023-04-14T09:56:08.164Z,98875.81
2023-04-14T09:58:38.747Z,98877.91
2023-04-14T10:01:11.378Z,98884.34
2023-04-14T10:03:41.019Z,98887.50
2023-04-14T10:06:10.948Z,98879.69
2023-04-14T10:08:39.482Z,98879.06
2023-04-14T10:11:26.110Z,98869.50
2023-04-14T10:13:58.083Z,98874.97
2023-04-14T10:16:25.201Z,98863.59
2023-04-14T10:18:53.754Z,98861.50
2023-04-14T10:21:24.716Z,98852.63
2023-04-14T10:23:52.540Z,98858.63
2023-04-14T10:26:19.770Z,98855.09
2023-04-14T10:28:49.450Z,98859.66
2023-04-14T10:31:33.571Z,98844.88
2023-04-14T10:34:11.355Z,98836.66
2023-04-14T10:36:39.053Z,98831.09
2023-04-14T10:39:07.287Z,98833.16
2023-04-14T10:41:43.092Z,98840.44
2023-04-14T10:44:32.810Z,98836.00
2023-04-14T10:47:05.327Z,98836.63
2023-04-14T10:49:37.504Z,98830.53
2023-04-14T10:52:04.280Z,98834.47
2023-04-14T10:55:03.745Z,98833.53
2023-04-14T10:57:30.584Z,98839.47
2023-04-14T10:59:59.369Z,98838.22
2023-04-14T11:02:34.008Z,98831.78
2023-04-14T11:05:10.523Z,98831.88
2023-04-14T11:07:44.786Z,98837.03
2023-04-14T11:10:17.614Z,98834.91
2023-04-14T11:12:46.171Z,98828.81
2023-04-14T11:15:13.634Z,98821.41
2023-04-14T11:17:41.839Z,98818.72
2023-04-14T11:20:22.248Z,98811.09
2023-04-14T11:22:51.044Z,98813.25
2023-04-14T11:25:22.313Z,98816.09
2023-04-14T11:27:52.104Z,98816.66
2023-04-14T11:30:20.577Z,98803.75
2023-04-14T11:32:51.874Z,98806.53
2023-04-14T11:35:20.064Z,98806.34
2023-04-14T11:37:47.134Z,98805.88
2023-04-14T11:40:15.144Z,98806.75
2023-04-14T11:42:46.888Z,98805.84
2023-04-14T11:45:15.859Z,98804.34
2023-04-14T11:48:06.392Z,98810.84
2023-04-14T11:50:39.158Z,98810.19
2023-04-14T11:53:10.060Z,98800.69
2023-04-14T11:55:37.278Z,98797.00
2023-04-14T11:58:05.074Z,98787.59
2023-04-14T12:00:31.884Z,98789.75
2023-04-14T12:03:03.713Z,98787.03
2023-04-14T12:05:33.941Z,98773.06
2023-04-14T12:08:03.376Z,98778.22
2023-04-14T12:10:31.783Z,98772.59
2023-04-14T12:13:06.233Z,98775.06
2023-04-14T12:15:37.045Z,98767.97
2023-04-14T12:18:14.051Z,98762.00
2023-04-14T12:20:48.004Z,98754.06
2023-04-14T12:23:16.449Z,98753.13
2023-04-14T12:25:43.590Z,98748.41
2023-04-14T12:28:10.410Z,98746.66
2023-04-14T12:30:37.844Z,98746.41
2023-04-14T12:33:14.276Z,98746.09
2023-04-14T12:35:41.068Z,98743.38
2023-04-14T12:38:17.697Z,98731.41
2023-04-14T12:40:48.749Z,98743.50
2023-04-14T12:43:16.945Z,98737.53
2023-04-14T12:45:49.141Z,98735.81
2023-04-14T12:48:18.000Z,98737.53
2023-04-14T12:50:45.321Z,98737.28
2023-04-14T12:53:25.399Z,98737.69
2023-04-14T12:56:16.812Z,98730.50
2023-04-14T12:58:47.199Z,98722.91
2023-04-14T13:01:16.744Z,98711.13
2023-04-14T13:03:48.265Z,98712.56
2023-04-14T13:06:18.940Z,98714.38
2023-04-14T13:08:47.684Z,98697.91
2023-04-14T13:11:15.396Z,98691.34
2023-04-14T13:13:42.503Z,98699.91
2023-04-14T13:16:13.519Z,98705.03
2023-04-14T13:18:47.531Z,98700.28
2023-04-14T13:21:14.542Z,98690.91
2023-04-14T13:23:41.741Z,98694.09
2023-04-14T13:26:08.805Z,98688.13
2023-04-14T13:28:36.758Z,98683.72
2023-04-14T13:31:03.629Z,98682.72
2023-04-14T13:33:30.427Z,98679.19
2023-04-14T13:35:59.977Z,98694.28
2023-04-14T13:38:27.432Z,98689.78
2023-04-14T13:40:54.247Z,98685.44
2023-04-14T13:43:21.777Z,98675.41
2023-04-14T13:45:48.579Z,98672.81
2023-04-14T13:48:15.804Z,98670.66
2023-04-14T13:50:42.617Z,98667.75
2023-04-14T13:53:09.401Z,98678.59
2023-04-14T13:55:36.536Z,98672.22
2023-04-14T13:58:03.614Z,98678.13
2023-04-14T14:00:30.586Z,98673.19
2023-04-14T14:02:57.554Z,98683.44
2023-04-14T14:05:24.713Z,98676.91
2023-04-14T14:07:51.795Z,98676.34
2023-04-14T14:10:18.991Z,98665.97
2023-04-14T14:12:45.861Z,98664.78
2023-04-14T14:15:12.682Z,98662.78
2023-04-14T14:17:39.569Z,98665.22
2023-04-14T14:20:08.418Z,98665.38
2023-04-14T14:22:37.856Z,98668.47
2023-04-14T14:25:18.384Z,98664.22
2023-04-14T14:27:45.920Z,98658.69
2023-04-14T14:30:13.310Z,98656.91
2023-04-14T14:32:40.073Z,98663.03
2023-04-14T14:35:07.367Z,98660.34
2023-04-14T14:37:34.555Z,98659.75
2023-04-14T14:40:01.329Z,98666.81
2023-04-14T14:42:28.508Z,98655.19
2023-04-14T14:44:55.446Z,98653.25
2023-04-14T14:47:22.858Z,98651.06
2023-04-14T14:49:59.427Z,98648.38
2023-04-14T14:52:32.452Z,98652.56
2023-04-14T14:54:59.676Z,98662.53
2023-04-14T14:57:27.223Z,98654.38
2023-04-14T14:59:54.181Z,98660.59
2023-04-14T15:02:21.932Z,98654.47
2023-04-14T15:04:49.169Z,98659.44
2023-04-14T15:07:16.078Z,98659.66
2023-04-14T15:09:43.120Z,98655.44
2023-04-14T15:12:09.986Z,98657.44
2023-04-14T15:14:36.988Z,98662.94
2023-04-14T15:17:03.866Z,98657.94
2023-04-14T15:19:30.759Z,98659.81
2023-04-14T15:21:57.555Z,98656.84
2023-04-14T15:24:24.319Z,98658.44
2023-04-14T15:26:51.189Z,98648.84
2023-04-14T15:29:19.612Z,98656.53
2023-04-14T15:31:46.521Z,98667.41
2023-04-14T15:34:13.425Z,98663.03
2023-04-14T15:36:40.181Z,98657.88
2023-04-14T15:39:07.312Z,98657.09
2023-04-14T15:41:36.152Z,98650.97
2023-04-14T15:44:03.131Z,98646.94
2023-04-14T15:46:30.221Z,98656.00
2023-04-14T15:48:57.218Z,98653.78
2023-04-14T15:51:23.961Z,98654.28
2023-04-14T15:53:52.087Z,98651.91
2023-04-14T15:56:23.741Z,98648.22
2023-04-14T15:58:50.705Z,98652.19
2023-04-14T16:01:17.795Z,98648.81
2023-04-14T16:03:45.688Z,98653.53
2023-04-14T16:06:12.551Z,98652.56
2023-04-14T16:08:39.435Z,98654.91
2023-04-14T16:11:06.254Z,98655.09
2023-04-14T16:13:33.049Z,98656.25
2023-04-14T16:15:59.834Z,98662.84
2023-04-14T16:18:27.052Z,98664.56
2023-04-14T16:20:53.833Z,98655.63
2023-04-14T16:23:20.870Z,98648.88
2023-04-14T16:25:49.727Z,98655.81
2023-04-14T16:28:16.929Z,98654.78
2023-04-14T16:30:43.938Z,98652.03
2023-04-14T16:33:11.004Z,98657.03
2023-04-14T16:35:37.878Z,98653.56
2023-04-14T16:38:08.767Z,98656.00
2023-04-14T16:40:36.768Z,98649.66
2023-04-14T16:43:04.087Z,98654.81
2023-04-14T16:45:32.184Z,98658.06
2023-04-14T16:47:59.279Z,98659.44
2023-04-14T16:50:26.692Z,98663.78
2023-04-14T16:52:54.472Z,98663.25
2023-04-14T16:55:21.797Z,98665.19
2023-04-14T16:57:48.616Z,98662.16
2023-04-14T17:00:16.812Z,98665.28
2023-04-14T17:02:43.987Z,98657.75
2023-04-14T17:05:11.411Z,98662.50
2023-04-14T17:07:38.271Z,98673.97
2023-04-14T17:10:05.343Z,98666.16
2023-04-14T17:12:32.117Z,98664.38
2023-04-14T17:15:00.549Z,98666.50
2023-04-14T17:17:28.699Z,98669.34
2023-04-14T17:19:56.810Z,98668.84
2023-04-14T17:22:24.105Z,98669.91
2023-04-14T17:24:51.740Z,98674.66
2023-04-14T17:27:18.521Z,98674.03
2023-04-14T17:29:46.635Z,98672.72
2023-04-14T17:32:13.727Z,98675.75
2023-04-14T17:34:40.686Z,98677.28
2023-04-14T17:37:07.555Z,98673.94
2023-04-14T17:39:34.696Z,98680.47
2023-04-14T17:42:01.731Z,98675.72
2023-04-14T17:44:33.456Z,98675.84
2023-04-14T17:47:13.033Z,98683.94
2023-04-14T17:49:39.936Z,98688.56
2023-04-14T17:52:08.009Z,98680.38
2023-04-14T17:54:35.243Z,98687.47
2023-04-14T17:57:02.291Z,98681.06
2023-04-14T17:59:29.297Z,98686.84
2023-04-14T18:01:56.432Z,98686.66
2023-04-14T18:04:23.345Z,98680.69
2023-04-14T18:06:51.231Z,98678.34
2023-04-14T18:09:18.120Z,98681.41
2023-04-14T18:11:44.911Z,98682.94
2023-04-14T18:14:11.629Z,98684.50
2023-04-14T18:16:39.193Z,98691.16
2023-04-14T18:19:06.238Z,98687.44
2023-04-14T18:21:33.107Z,98693.75
2023-04-14T18:26:30.416Z,98712.50
2023-04-14T18:28:57.524Z,98712.97
2023-04-14T18:31:24.442Z,98704.41
2023-04-14T18:33:51.683Z,98712.50
2023-04-14T18:36:18.482Z,98712.63
2023-04-14T18:38:45.317Z,98723.63
2023-04-14T18:41:12.071Z,98723.03
2023-04-14T18:43:38.904Z,98730.16
2023-04-14T18:46:05.738Z,98730.28
2023-04-14T18:48:33.022Z,98732.94
2023-04-14T18:51:02.670Z,98731.38
2023-04-14T18:53:29.535Z,98735.13
2023-04-14T18:55:56.313Z,98736.03
2023-04-14T18:58:23.350Z,98731.19
2023-04-14T19:00:50.124Z,98733.56
2023-04-14T19:03:17.263Z,98737.47
2023-04-14T19:05:45.078Z,98737.78
2023-04-14T19:08:12.019Z,98742.00
2023-04-14T19:10:39.998Z,98745.56
2023-04-14T19:13:06.847Z,98747.75
2023-04-14T19:15:33.657Z,98749.78
2023-04-14T19:18:01.831Z,98762.19
2023-04-14T19:20:28.623Z,98759.63
2023-04-14T19:22:55.525Z,98756.34
2023-04-14T19:25:22.635Z,98763.66
2023-04-14T19:27:49.673Z,98764.91
2023-04-14T19:30:16.563Z,98750.53
2023-04-14T19:32:43.426Z,98754.72
2023-04-14T19:35:10.715Z,98761.78
2023-04-14T19:37:38.536Z,98757.84
2023-04-14T19:40:06.838Z,98749.03
2023-04-14T19:42:33.804Z,98744.69
2023-04-14T19:45:01.399Z,98743.97
2023-04-14T19:47:28.600Z,98742.59
2023-04-14T19:49:55.474Z,98743.53
2023-04-14T19:52:22.623Z,98743.72
2023-04-14T19:54:50.017Z,98740.34
2023-04-14T19:57:17.130Z,98745.53
2023-04-14T19:59:44.485Z,98728.81
2023-04-14T20:02:13.508Z,98732.50
2023-04-14T20:04:40.732Z,98735.66
2023-04-14T20:07:07.825Z,98733.31
2023-04-14T20:09:35.942Z,98727.53
2023-04-14T20:12:03.411Z,98731.03
2023-04-14T20:14:30.522Z,98729.28
2023-04-14T20:16:57.326Z,98732.78
2023-04-14T20:19:24.713Z,98737.16
2023-04-14T20:21:51.523Z,98734.91
2023-04-14T20:24:18.858Z,98736.03
2023-04-14T20:26:45.906Z,98735.72
2023-04-14T20:29:13.248Z,98736.22
2023-04-14T20:31:41.806Z,98737.50
2023-04-14T20:34:09.268Z,98733.78
2023-04-14T20:36:37.765Z,98735.69
2023-04-14T20:39:06.116Z,98734.03
2023-04-14T20:41:34.109Z,98736.59
2023-04-14T20:44:01.554Z,98742.88
2023-04-14T20:46:29.026Z,98742.78
2023-04-14T20:48:56.890Z,98739.56
2023-04-14T20:51:23.897Z,98743.09
2023-04-14T20:53:51.140Z,98739.41
2023-04-14T20:56:18.189Z,98736.78
2023-04-14T20:58:45.782Z,98745.78
2023-04-14T21:01:13.092Z,98744.25
2023-04-14T21:03:40.486Z,98744.47
2023-04-14T21:06:07.507Z,98744.66
2023-04-14T21:08:34.257Z,98746.53
2023-04-14T21:11:15.241Z,98746.41
2023-04-14T21:15:31.396Z,98751.38
2023-04-14T21:16:31.381Z,98746.44
2023-04-14T21:18:58.290Z,98753.50
2023-04-14T21:21:25.065Z,98751.72
2023-04-14T21:23:52.471Z,98743.19
2023-04-14T21:26:19.460Z,98754.66
2023-04-14T21:28:46.387Z,98741.78
2023-04-14T21:31:13.255Z,98741.91
2023-04-14T21:33:41.980Z,98750.00
2023-04-14T21:36:12.185Z,98742.66
2023-04-14T21:38:39.474Z,98741.63
2023-04-14T21:41:08.210Z,98744.53
2023-04-14T21:43:35.347Z,98745.41
2023-04-14T21:46:02.366Z,98742.91
2023-04-14T21:48:29.610Z,98746.22
2023-04-14T21:50:57.409Z,98747.00
2023-04-14T21:53:24.426Z,98750.31
2023-04-14T21:56:09.080Z,98750.34
2023-04-14T21:58:37.506Z,98749.09
2023-04-14T22:01:04.754Z,98747.66
2023-04-14T22:03:32.845Z,98744.78
2023-04-14T22:06:00.279Z,98747.47
2023-04-14T22:08:27.123Z,98750.13
2023-04-14T22:10:55.112Z,98751.97
2023-04-14T22:13:22.024Z,98748.50
2023-04-14T22:15:50.191Z,98748.72
2023-04-14T22:18:17.384Z,98750.53
2023-04-14T22:20:45.288Z,98743.34
2023-04-14T22:23:12.651Z,98751.38
2023-04-14T22:25:39.508Z,98740.69
2023-04-14T22:28:06.540Z,98743.34
2023-04-14T22:30:33.377Z,98755.69
2023-04-14T22:33:00.204Z,98753.63
2023-04-14T22:35:26.960Z,98764.72
2023-04-14T22:37:53.774Z,98759.19
2023-04-14T22:40:20.677Z,98760.78
2023-04-14T22:42:47.476Z,98765.50
2023-04-14T22:45:14.866Z,98765.75
2023-04-14T22:47:42.023Z,98764.72
2023-04-14T22:50:09.408Z,98771.09
2023-04-14T22:52:36.641Z,98771.91
2023-04-14T22:55:03.685Z,98766.53
2023-04-14T22:57:30.536Z,98763.00
2023-04-14T22:59:57.675Z,98763.00
2023-04-14T23:02:24.774Z,98767.94
2023-04-14T23:04:52.410Z,98767.13
2023-04-14T23:07:19.158Z,98766.31
2023-04-14T23:09:45.898Z,98764.66
2023-04-14T23:12:12.628Z,98763.84
2023-04-14T23:14:39.364Z,98765.50
2023-04-14T23:17:06.399Z,98762.16
2023-04-14T23:19:33.975Z,98761.75
2023-04-14T23:22:00.707Z,98755.59
2023-04-14T23:24:27.473Z,98758.00
2023-04-14T23:26:54.578Z,98758.00
2023-04-14T23:29:21.682Z,98754.72
2023-04-14T23:31:48.591Z,98751.00
2023-04-14T23:34:15.486Z,98752.22
2023-04-14T23:36:42.732Z,98743.13
2023-04-14T23:39:09.508Z,98752.16
2023-04-14T23:41:36.349Z,98752.41
2023-04-14T23:44:03.274Z,98748.88
2023-04-14T23:46:30.132Z,98753.44
2023-04-14T23:48:58.954Z,98750.97
2023-04-14T23:51:30.547Z,98745.63
2023-04-14T23:53:59.681Z,98743.53
2023-04-14T23:56:26.545Z,98742.09
2023-04-14T23:58:53.437Z,98736.97
